This is the latest recevied weather packets stored in our database for station/object CA4LJZ-10. If no packets are shown the sender has not sent any weather packets the latest 10 day(s).
| Time | Temp. | Humidity | Pressure | Rain* | Wind** | Luminosity | Snow |
|---|---|---|---|---|---|---|---|
| 1777540117 | 17.78° C | 48% | 949.1 hPa | - | - | - | - |
| 1777536513 | 18.33° C | 47% | 949 hPa | - | - | - | - |
| 1777535612 | 18.33° C | 48% | 949 hPa | - | - | - | - |
| 1777534710 | 18.33° C | 47% | 949.2 hPa | - | - | - | - |
| 1777533810 | 18.33° C | 47% | 949.3 hPa | - | - | - | - |
| 1777532909 | 18.33° C | 48% | 949.4 hPa | - | - | - | - |
| 1777532008 | 17.78° C | 51% | 949.4 hPa | - | - | - | - |
| 1777531107 | 19.44° C | 47% | 949.3 hPa | - | - | - | - |
| 1777530206 | 19.44° C | 45% | 949.3 hPa | - | - | - | - |
| 1777529305 | 19.44° C | 46% | 949.3 hPa | - | - | - | - |
| 1777528404 | 19.44° C | 45% | 949.3 hPa | - | - | - | - |
| 1777527502 | 21.11° C | 45% | 949.3 hPa | - | - | - | - |
| 1777526626 | 20° C | 46% | 949.3 hPa | - | - | - | - |
| 1777525725 | 20° C | 46% | 949.3 hPa | - | - | - | - |
| 1777524824 | 20° C | 47% | 949.4 hPa | - | - | - | - |
| 1777523923 | 19.44° C | 47% | 949.5 hPa | - | - | - | - |
| 1777523022 | 19.44° C | 47% | 949.6 hPa | - | - | - | - |
| 1777522122 | 20.56° C | 44% | 949.6 hPa | - | - | - | - |
| 1777521220 | 20.56° C | 44% | 949.7 hPa | - | - | - | - |
| 1777520317 | 21.11° C | 44% | 950 hPa | - | - | - | - |
| 1777519416 | 20.56° C | 45% | 950.2 hPa | - | - | - | - |
| 1777518514 | 20.56° C | 46% | 950.3 hPa | - | - | - | - |
| 1777517613 | 21.11° C | 43% | 950.4 hPa | - | - | - | - |
| 1777516712 | 21.67° C | 43% | 950.4 hPa | - | - | - | - |
| 1777515812 | 22.22° C | 42% | 950.4 hPa | - | - | - | - |
* Rain since midnight (hover to see other rain measurements)
** Current wind speed in m/s (hover to see current wind gust speed)